createdAt,value
2018-11-23T00:01:30.785Z,85.57
2018-11-23T00:04:02.138Z,85.45
2018-11-23T00:06:35.821Z,85.49
2018-11-23T00:09:10.300Z,84.91
2018-11-23T00:11:44.043Z,84.93
2018-11-23T00:14:18.384Z,84.96
2018-11-23T00:16:49.878Z,84.55
2018-11-23T00:19:21.434Z,85.01
2018-11-23T00:21:54.251Z,85.11
2018-11-23T00:24:25.506Z,85.06
2018-11-23T00:26:57.161Z,84.78
2018-11-23T00:29:28.308Z,84.90
2018-11-23T00:31:59.549Z,85.37
2018-11-23T00:34:31.465Z,85.07
2018-11-23T00:37:02.730Z,85.21
2018-11-23T00:39:33.815Z,85.09
2018-11-23T00:42:06.315Z,85.01
2018-11-23T00:44:38.560Z,85.31
2018-11-23T00:47:16.305Z,85.22
2018-11-23T00:49:47.832Z,84.81
2018-11-23T00:52:19.042Z,84.97
2018-11-23T00:54:50.588Z,84.72
2018-11-23T00:57:21.967Z,84.30
2018-11-23T00:59:53.086Z,84.45
2018-11-23T01:02:29.063Z,84.00
2018-11-23T01:05:04.364Z,83.80
2018-11-23T01:07:36.598Z,83.67
2018-11-23T01:10:10.364Z,82.67
2018-11-23T01:12:42.121Z,83.10
2018-11-23T01:15:13.575Z,83.22
2018-11-23T01:17:45.305Z,83.42
2018-11-23T01:20:28.029Z,83.26
2018-11-23T01:22:59.912Z,83.56
2018-11-23T01:25:31.227Z,83.29
2018-11-23T01:28:02.787Z,83.54
2018-11-23T01:30:34.009Z,83.67
2018-11-23T01:33:05.244Z,83.29
2018-11-23T01:35:36.527Z,82.98
2018-11-23T01:38:07.734Z,83.08
2018-11-23T01:40:38.947Z,83.41
2018-11-23T01:43:10.142Z,82.88
2018-11-23T01:45:42.193Z,83.50
2018-11-23T01:48:13.230Z,83.79
2018-11-23T01:50:44.562Z,83.34
2018-11-23T01:53:15.770Z,83.38
2018-11-23T01:55:46.926Z,83.13
2018-11-23T01:58:18.098Z,82.65
2018-11-23T02:00:49.286Z,83.41
2018-11-23T02:03:23.366Z,83.87
2018-11-23T02:05:54.600Z,83.50
2018-11-23T02:08:25.777Z,83.64
2018-11-23T02:10:56.951Z,83.66
2018-11-23T02:13:28.089Z,83.78
2018-11-23T02:15:59.340Z,84.04
2018-11-23T02:18:30.517Z,83.63
2018-11-23T02:21:01.684Z,83.27
2018-11-23T02:23:32.725Z,83.50
2018-11-23T02:26:04.017Z,83.41
2018-11-23T02:28:35.289Z,82.98
2018-11-23T02:31:10.665Z,83.26
2018-11-23T02:33:42.256Z,83.19
2018-11-23T02:36:13.521Z,83.10
2018-11-23T02:38:44.761Z,83.02
2018-11-23T02:41:15.951Z,82.71
2018-11-23T02:43:46.978Z,82.78
2018-11-23T02:46:18.148Z,82.83
2018-11-23T02:48:49.441Z,83.17
2018-11-23T02:51:20.765Z,83.04
2018-11-23T02:53:51.957Z,83.31
2018-11-23T02:56:23.225Z,82.81
2018-11-23T02:58:54.577Z,83.19
2018-11-23T03:01:25.968Z,83.63
2018-11-23T03:03:57.633Z,84.19
2018-11-23T03:06:28.974Z,83.89
2018-11-23T03:09:00.140Z,83.21
2018-11-23T03:11:38.467Z,83.12
2018-11-23T03:14:09.836Z,83.37
2018-11-23T03:16:40.717Z,84.01
2018-11-23T03:19:11.639Z,84.04
2018-11-23T03:22:21.392Z,83.94
2018-11-23T03:25:12.420Z,83.87
2018-11-23T03:28:02.271Z,83.65
2018-11-23T03:30:52.111Z,83.88
2018-11-23T03:33:42.319Z,84.09
2018-11-23T03:36:32.437Z,83.73
2018-11-23T03:39:03.757Z,83.61
2018-11-23T03:41:34.937Z,83.53
2018-11-23T03:44:24.778Z,82.97
2018-11-23T03:47:14.649Z,83.32
2018-11-23T03:50:05.002Z,83.39
2018-11-23T03:52:54.808Z,83.44
2018-11-23T03:55:45.081Z,83.33
2018-11-23T03:58:34.877Z,83.36
2018-11-23T04:01:24.817Z,83.25
2018-11-23T04:03:55.630Z,83.48
2018-11-23T04:09:22.189Z,83.82
2018-11-23T04:12:12.019Z,83.67
2018-11-23T04:14:42.964Z,83.62
2018-11-23T04:17:32.821Z,84.04
2018-11-23T04:20:22.656Z,83.75
2018-11-23T04:23:32.061Z,84.14
2018-11-23T04:26:24.834Z,84.27
2018-11-23T04:29:12.771Z,84.39
2018-11-23T04:32:02.604Z,84.46
2018-11-23T04:35:13.371Z,84.28
2018-11-23T04:38:03.218Z,84.56
2018-11-23T04:40:53.087Z,84.61
2018-11-23T04:43:42.966Z,85.02
2018-11-23T04:46:32.810Z,85.22
2018-11-23T04:49:22.969Z,84.95
2018-11-23T04:52:12.848Z,84.56
2018-11-23T04:55:02.695Z,84.06
2018-11-23T04:57:53.785Z,84.38
2018-11-23T05:03:52.157Z,84.42
2018-11-23T05:06:42.001Z,84.54
2018-11-23T05:09:31.829Z,84.14
2018-11-23T05:12:21.874Z,83.80
2018-11-23T05:15:31.282Z,84.40
2018-11-23T05:18:40.214Z,84.45
2018-11-23T05:21:30.055Z,84.41
2018-11-23T05:24:19.916Z,84.11
2018-11-23T05:27:09.801Z,84.16
2018-11-23T05:29:59.654Z,84.66
2018-11-23T05:32:49.520Z,83.89
2018-11-23T05:35:39.364Z,84.24
2018-11-23T05:38:47.904Z,83.92
2018-11-23T05:41:56.821Z,84.02
2018-11-23T05:44:46.652Z,84.13
2018-11-23T05:47:36.717Z,85.09
2018-11-23T05:50:27.000Z,85.18
2018-11-23T05:53:16.855Z,85.40
2018-11-23T05:59:16.066Z,85.18
2018-11-23T06:02:24.596Z,85.08
2018-11-23T06:05:14.545Z,84.35
2018-11-23T06:08:04.411Z,84.00
2018-11-23T06:10:54.974Z,84.85
2018-11-23T06:13:44.839Z,84.95
2018-11-23T06:20:03.087Z,85.34
2018-11-23T06:23:11.995Z,85.34
2018-11-23T06:26:21.805Z,85.56
2018-11-23T06:29:11.665Z,85.13
2018-11-23T06:31:54.143Z,85.79
2018-11-23T06:35:03.475Z,85.44
2018-11-23T06:38:12.855Z,85.28
2018-11-23T06:41:10.041Z,85.28
2018-11-23T06:43:54.016Z,85.27
2018-11-23T06:46:44.138Z,85.44
2018-11-23T06:49:34.002Z,85.70
2018-11-23T06:52:23.952Z,85.50
2018-11-23T06:55:33.651Z,85.42
2018-11-23T07:01:38.130Z,85.09
2018-11-23T07:04:47.081Z,84.68
2018-11-23T07:07:37.004Z,85.23
2018-11-23T07:10:26.896Z,85.76
2018-11-23T07:13:16.785Z,85.89
2018-11-23T07:15:47.640Z,85.06
2018-11-23T07:18:37.620Z,85.95
2018-11-23T07:21:27.557Z,85.82
2018-11-23T07:24:17.437Z,85.69
2018-11-23T07:27:07.324Z,86.06
2018-11-23T07:29:57.178Z,86.30
2018-11-23T07:33:06.100Z,86.46
2018-11-23T07:35:55.961Z,85.94
2018-11-23T07:38:46.103Z,85.67
2018-11-23T07:47:30.971Z,86.06
2018-11-23T07:50:40.200Z,86.69
2018-11-23T07:53:49.144Z,86.10
2018-11-23T07:56:39.008Z,85.99
2018-11-23T07:59:28.992Z,85.48
2018-11-23T08:02:18.851Z,85.93
2018-11-23T08:05:10.735Z,85.28
2018-11-23T08:08:00.609Z,85.79
2018-11-23T08:10:49.281Z,85.99
2018-11-23T08:13:39.742Z,86.09
2018-11-23T08:16:29.604Z,86.17
2018-11-23T08:19:38.969Z,85.94
2018-11-23T08:22:28.869Z,85.94
2018-11-23T08:25:19.935Z,85.53
2018-11-23T08:31:38.036Z,84.81
2018-11-23T08:34:28.044Z,85.43
2018-11-23T08:37:17.943Z,84.98
2018-11-23T08:40:29.956Z,85.04
2018-11-23T08:43:19.965Z,85.16
2018-11-23T08:45:50.839Z,85.04
2018-11-23T08:48:59.830Z,84.86
2018-11-23T08:51:31.077Z,84.98
2018-11-23T08:54:02.426Z,84.89
2018-11-23T08:56:51.642Z,85.26
2018-11-23T08:59:22.530Z,84.35
2018-11-23T09:02:12.512Z,84.59
2018-11-23T09:05:02.385Z,84.92
2018-11-23T09:07:54.223Z,84.78
2018-11-23T09:10:44.195Z,84.86
2018-11-23T09:13:15.395Z,84.51
2018-11-23T09:16:24.614Z,84.49
2018-11-23T09:19:14.525Z,84.91
2018-11-23T09:21:45.500Z,84.71
2018-11-23T09:24:16.588Z,84.75
2018-11-23T09:26:47.484Z,84.58
2018-11-23T09:29:18.339Z,84.57
2018-11-23T09:31:49.315Z,84.84
2018-11-23T09:34:20.154Z,84.97
2018-11-23T09:36:51.293Z,85.03
2018-11-23T09:39:22.280Z,84.61
2018-11-23T09:41:53.207Z,84.79
2018-11-23T09:44:24.192Z,84.79
2018-11-23T09:46:55.215Z,84.25
2018-11-23T09:49:26.067Z,84.05
2018-11-23T09:51:56.927Z,83.89
2018-11-23T09:55:01.706Z,84.78
2018-11-23T09:57:31.106Z,84.64
2018-11-23T10:00:00.303Z,83.87
2018-11-23T10:02:29.512Z,84.28
2018-11-23T10:04:58.704Z,83.57
2018-11-23T10:07:27.899Z,83.39
2018-11-23T10:09:58.145Z,83.43
2018-11-23T10:12:27.368Z,85.43
2018-11-23T10:14:56.534Z,85.39
2018-11-23T10:17:25.823Z,84.93
2018-11-23T10:19:58.143Z,83.76
2018-11-23T10:22:24.331Z,83.33
2018-11-23T10:24:53.510Z,84.11
2018-11-23T10:27:22.734Z,83.67
2018-11-23T10:29:55.336Z,84.22
2018-11-23T10:32:21.315Z,83.71
2018-11-23T10:34:50.553Z,82.82
2018-11-23T10:37:19.798Z,82.77
2018-11-23T10:39:49.018Z,82.38
2018-11-23T10:42:18.227Z,82.42
2018-11-23T10:44:47.527Z,82.48
2018-11-23T10:47:16.797Z,83.19
2018-11-23T10:49:46.009Z,82.76
2018-11-23T10:52:15.214Z,82.71
2018-11-23T10:54:44.421Z,82.82
2018-11-23T10:57:13.626Z,82.18
2018-11-23T10:59:42.770Z,82.84
2018-11-23T11:02:17.131Z,82.58
2018-11-23T11:04:52.757Z,81.66
2018-11-23T11:07:21.935Z,82.80
2018-11-23T11:09:51.092Z,82.50
2018-11-23T11:12:20.266Z,82.92
2018-11-23T11:14:49.396Z,83.15
2018-11-23T11:17:18.552Z,82.64
2018-11-23T11:19:47.723Z,82.25
2018-11-23T11:22:16.870Z,81.56
2018-11-23T11:24:46.015Z,81.83
2018-11-23T11:27:15.160Z,81.49
2018-11-23T11:29:44.311Z,82.36
2018-11-23T11:32:13.478Z,82.27
2018-11-23T11:34:42.648Z,82.08
2018-11-23T11:37:11.854Z,83.06
2018-11-23T11:39:41.054Z,82.98
2018-11-23T11:42:10.507Z,83.63
2018-11-23T11:44:39.713Z,84.00
2018-11-23T11:47:08.894Z,83.38
2018-11-23T11:49:38.133Z,84.30
2018-11-23T11:52:07.339Z,84.25
2018-11-23T11:54:36.559Z,83.54
2018-11-23T11:57:06.002Z,83.62
2018-11-23T11:59:35.217Z,83.86
2018-11-23T12:02:10.044Z,84.11
2018-11-23T12:04:33.598Z,83.29
2018-11-23T12:07:02.842Z,83.52
2018-11-23T12:09:32.051Z,82.55
2018-11-23T12:12:01.346Z,82.84
2018-11-23T12:14:30.686Z,82.78
2018-11-23T12:16:59.926Z,83.05
2018-11-23T12:19:29.122Z,83.27
2018-11-23T12:21:58.345Z,83.07
2018-11-23T12:24:27.530Z,82.50
2018-11-23T12:26:56.786Z,82.78
2018-11-23T12:29:25.939Z,83.12
2018-11-23T12:31:55.126Z,81.37
2018-11-23T12:34:24.267Z,82.04
2018-11-23T12:36:53.465Z,81.84
2018-11-23T12:39:22.684Z,81.74
2018-11-23T12:41:51.888Z,82.13
2018-11-23T12:44:21.037Z,82.22
2018-11-23T12:46:50.518Z,82.06
2018-11-23T12:49:19.662Z,82.51
2018-11-23T12:51:48.879Z,82.54
2018-11-23T12:54:18.049Z,81.98
2018-11-23T12:56:47.195Z,81.44
2018-11-23T12:59:16.345Z,82.41
2018-11-23T13:01:45.496Z,82.44
2018-11-23T13:04:14.641Z,83.52
2018-11-23T13:06:43.837Z,84.43
2018-11-23T13:09:13.066Z,83.76
2018-11-23T13:11:42.759Z,83.79
2018-11-23T13:14:11.934Z,82.36
2018-11-23T13:16:41.105Z,82.60
2018-11-23T13:19:10.270Z,83.17
2018-11-23T13:21:39.450Z,83.84
2018-11-23T13:24:08.795Z,83.13
2018-11-23T13:26:37.974Z,83.23
2018-11-23T13:29:15.586Z,83.66
2018-11-23T13:31:36.376Z,83.25
2018-11-23T13:34:05.612Z,83.53
2018-11-23T13:36:34.846Z,83.36
2018-11-23T13:39:05.361Z,82.61
2018-11-23T13:41:34.585Z,83.96
2018-11-23T13:44:03.840Z,83.87
2018-11-23T13:46:33.042Z,83.41
2018-11-23T13:49:02.290Z,82.99
2018-11-23T13:51:31.508Z,83.17
2018-11-23T13:54:00.734Z,83.43
2018-11-23T13:56:29.992Z,84.18
2018-11-23T13:58:59.169Z,83.48
2018-11-23T14:01:28.417Z,84.23
2018-11-23T14:03:57.670Z,84.39
2018-11-23T14:06:26.990Z,84.14
2018-11-23T14:08:56.219Z,84.45
2018-11-23T14:11:25.481Z,84.03
2018-11-23T14:13:54.713Z,83.31
2018-11-23T14:16:23.943Z,84.22
2018-11-23T14:18:53.101Z,83.82
2018-11-23T14:21:22.418Z,83.74
2018-11-23T14:23:51.571Z,84.15
2018-11-23T14:26:20.967Z,85.19
2018-11-23T14:28:50.107Z,84.59
2018-11-23T14:31:19.355Z,84.79
2018-11-23T14:33:48.535Z,84.86
2018-11-23T14:36:17.726Z,84.51
2018-11-23T14:38:46.947Z,84.46
2018-11-23T14:41:16.138Z,84.74
2018-11-23T14:43:45.454Z,84.16
2018-11-23T14:46:14.650Z,83.99
2018-11-23T14:48:43.840Z,84.19
2018-11-23T14:51:13.097Z,83.82
2018-11-23T14:53:42.246Z,83.96
2018-11-23T14:56:11.446Z,84.00
2018-11-23T14:58:40.597Z,84.25
2018-11-23T15:01:09.794Z,84.91
2018-11-23T15:03:38.968Z,84.66
2018-11-23T15:06:08.161Z,84.17
2018-11-23T15:08:37.318Z,84.12
2018-11-23T15:11:07.043Z,84.58
2018-11-23T15:13:36.680Z,84.34
2018-11-23T15:16:06.043Z,84.29
2018-11-23T15:18:35.250Z,84.44
2018-11-23T15:21:04.401Z,84.05
2018-11-23T15:23:33.614Z,84.44
2018-11-23T15:26:02.796Z,84.42
2018-11-23T15:28:32.032Z,84.98
2018-11-23T15:31:01.223Z,85.13
2018-11-23T15:33:30.422Z,84.76
2018-11-23T15:35:59.578Z,84.90
2018-11-23T15:38:28.801Z,85.34
2018-11-23T15:40:57.996Z,85.10
2018-11-23T15:43:27.230Z,85.39
2018-11-23T15:45:56.371Z,85.73
2018-11-23T15:48:25.647Z,86.35
2018-11-23T15:50:54.864Z,85.39
2018-11-23T15:53:24.090Z,86.18
2018-11-23T15:55:53.417Z,85.45
2018-11-23T15:58:22.798Z,85.62
2018-11-23T16:00:52.562Z,85.80
2018-11-23T16:03:21.763Z,86.18
2018-11-23T16:05:50.939Z,85.88
2018-11-23T16:08:21.842Z,86.50
2018-11-23T16:10:51.015Z,85.70
2018-11-23T16:13:20.301Z,85.89
2018-11-23T16:15:49.456Z,85.73
2018-11-23T16:18:18.649Z,85.70
2018-11-23T16:20:47.999Z,85.18
2018-11-23T16:23:19.615Z,85.32
2018-11-23T16:25:49.372Z,85.77
2018-11-23T16:28:18.578Z,85.23
2018-11-23T16:30:49.111Z,85.65
2018-11-23T16:33:19.912Z,85.20
2018-11-23T16:35:49.234Z,85.71
2018-11-23T16:38:19.819Z,85.40
2018-11-23T16:40:51.515Z,86.09
2018-11-23T16:43:20.717Z,85.63
2018-11-23T16:45:49.914Z,85.70
2018-11-23T16:48:19.790Z,85.51
2018-11-23T16:50:48.911Z,85.10
2018-11-23T16:53:18.162Z,85.71
2018-11-23T16:55:47.364Z,85.97
2018-11-23T16:58:16.546Z,86.12
2018-11-23T17:00:47.068Z,86.27
2018-11-23T17:03:19.794Z,86.24
2018-11-23T17:05:51.491Z,85.67
2018-11-23T17:08:20.844Z,85.28
2018-11-23T17:10:49.983Z,86.03
2018-11-23T17:13:19.204Z,86.21
2018-11-23T17:15:48.343Z,86.48
2018-11-23T17:18:17.937Z,85.90
2018-11-23T17:20:47.114Z,86.01
2018-11-23T17:23:16.298Z,86.21
2018-11-23T17:25:45.470Z,85.93
2018-11-23T17:28:14.598Z,86.20
2018-11-23T17:30:43.756Z,86.07
2018-11-23T17:33:12.947Z,86.41
2018-11-23T17:35:42.087Z,86.31
2018-11-23T17:38:11.270Z,85.17
2018-11-23T17:40:41.329Z,85.47
2018-11-23T17:43:11.141Z,85.78
2018-11-23T17:45:40.357Z,86.30
2018-11-23T17:48:09.525Z,85.79
2018-11-23T17:50:39.598Z,86.20
2018-11-23T17:53:08.794Z,86.01
2018-11-23T17:55:37.978Z,86.10
2018-11-23T17:58:07.158Z,85.66
2018-11-23T18:00:39.101Z,85.07
2018-11-23T18:03:05.890Z,85.91
2018-11-23T18:05:35.724Z,86.08
2018-11-23T18:08:05.787Z,86.55
2018-11-23T18:10:35.324Z,86.01
2018-11-23T18:13:04.556Z,86.04
2018-11-23T18:15:34.746Z,86.43
2018-11-23T18:18:04.681Z,85.97
2018-11-23T18:20:34.438Z,84.55
2018-11-23T18:23:04.301Z,85.17
2018-11-23T18:25:35.302Z,85.04
2018-11-23T18:28:04.638Z,85.81
2018-11-23T18:30:34.877Z,85.80
2018-11-23T18:33:08.896Z,85.14
2018-11-23T18:35:38.330Z,85.45
2018-11-23T18:38:07.523Z,85.27
2018-11-23T18:40:37.743Z,84.87
2018-11-23T18:43:06.743Z,85.82
2018-11-23T18:45:35.951Z,86.54
2018-11-23T18:48:05.184Z,86.64
2018-11-23T18:50:34.451Z,86.67
2018-11-23T18:53:03.610Z,86.89
2018-11-23T18:55:32.932Z,86.86
2018-11-23T18:58:02.141Z,86.82
2018-11-23T19:00:31.392Z,87.34
2018-11-23T19:03:00.657Z,87.72
2018-11-23T19:05:29.896Z,86.92
2018-11-23T19:07:59.077Z,86.88
2018-11-23T19:10:28.370Z,87.19
2018-11-23T19:12:57.578Z,87.23
2018-11-23T19:15:26.781Z,87.23
2018-11-23T19:17:55.978Z,87.46
2018-11-23T19:20:25.278Z,87.15
2018-11-23T19:22:55.653Z,87.87
2018-11-23T19:25:24.854Z,87.36
2018-11-23T19:27:54.052Z,87.25
2018-11-23T19:30:28.765Z,87.85
2018-11-23T19:32:54.010Z,87.23
2018-11-23T19:35:23.254Z,87.84
2018-11-23T19:37:52.472Z,88.04
2018-11-23T19:40:21.642Z,88.22
2018-11-23T19:42:50.874Z,87.64
2018-11-23T19:45:20.084Z,87.52
2018-11-23T19:47:49.278Z,92.30
2018-11-23T19:50:22.174Z,86.51
2018-11-23T19:52:51.526Z,85.85
2018-11-23T19:55:20.696Z,86.33
2018-11-23T19:57:49.989Z,86.93
2018-11-23T20:00:25.349Z,87.22
2018-11-23T20:02:54.626Z,86.49
2018-11-23T20:05:24.139Z,87.17
2018-11-23T20:07:55.758Z,87.05
2018-11-23T20:10:25.830Z,86.79
2018-11-23T20:12:57.536Z,87.05
2018-11-23T20:15:26.786Z,87.36
2018-11-23T20:17:56.189Z,87.93
2018-11-23T20:20:25.401Z,87.40
2018-11-23T20:22:54.629Z,87.97
2018-11-23T20:25:23.798Z,87.67
2018-11-23T20:27:53.666Z,86.48
2018-11-23T20:30:22.862Z,86.43
2018-11-23T20:32:52.102Z,86.88
2018-11-23T20:35:22.609Z,86.71
2018-11-23T20:37:52.098Z,86.82
2018-11-23T20:40:22.985Z,86.66
2018-11-23T20:42:52.677Z,86.65
2018-11-23T20:45:21.914Z,86.17
2018-11-23T20:47:51.223Z,86.29
2018-11-23T20:50:20.385Z,86.33
2018-11-23T20:52:50.670Z,85.96
2018-11-23T20:55:21.520Z,85.83
2018-11-23T20:57:50.849Z,85.58
2018-11-23T21:00:21.486Z,85.67
2018-11-23T21:02:52.138Z,86.15
2018-11-23T21:05:22.442Z,85.88
2018-11-23T21:07:52.088Z,85.42
2018-11-23T21:10:24.194Z,86.52
2018-11-23T21:12:55.397Z,86.71
2018-11-23T21:15:27.515Z,87.05
2018-11-23T21:18:01.769Z,86.80
2018-11-23T21:20:30.944Z,86.34
2018-11-23T21:23:00.150Z,86.57
2018-11-23T21:25:29.315Z,85.97
2018-11-23T21:27:58.543Z,86.40
2018-11-23T21:30:27.691Z,86.60
2018-11-23T21:32:57.474Z,86.58
2018-11-23T21:35:26.903Z,86.00
2018-11-23T21:37:56.173Z,86.61
2018-11-23T21:40:25.362Z,85.46
2018-11-23T21:42:54.840Z,85.75
2018-11-23T21:45:24.051Z,86.36
2018-11-23T21:47:53.230Z,85.82
2018-11-23T21:50:25.484Z,86.12
2018-11-23T21:52:51.798Z,86.04
2018-11-23T21:55:24.502Z,85.52
2018-11-23T21:57:55.700Z,85.23
2018-11-23T22:00:24.888Z,85.15
2018-11-23T22:02:54.157Z,85.54
2018-11-23T22:05:23.346Z,85.08
2018-11-23T22:07:52.532Z,85.24
2018-11-23T22:10:21.754Z,85.62
2018-11-23T22:12:50.981Z,85.77
2018-11-23T22:15:23.930Z,84.97
2018-11-23T22:17:55.958Z,84.85
2018-11-23T22:20:26.031Z,84.98
2018-11-23T22:22:55.266Z,85.30
2018-11-23T22:25:24.845Z,85.24
2018-11-23T22:27:54.046Z,84.61
2018-11-23T22:30:29.034Z,85.55
2018-11-23T22:32:58.447Z,84.85
2018-11-23T22:35:29.226Z,85.22
2018-11-23T22:37:58.410Z,85.08
2018-11-23T22:40:27.758Z,85.23
2018-11-23T22:42:58.608Z,85.46
2018-11-23T22:45:27.877Z,85.08
2018-11-23T22:47:57.090Z,84.66
2018-11-23T22:50:26.306Z,85.94
2018-11-23T22:52:55.499Z,85.82
2018-11-23T22:55:24.854Z,84.84
2018-11-23T22:57:54.044Z,85.54
2018-11-23T23:00:33.806Z,85.30
2018-11-23T23:03:02.979Z,85.87
2018-11-23T23:05:32.195Z,85.40
2018-11-23T23:08:01.426Z,85.48
2018-11-23T23:10:30.645Z,85.83
2018-11-23T23:12:59.876Z,85.53
2018-11-23T23:15:29.098Z,85.43
2018-11-23T23:17:58.288Z,85.54
2018-11-23T23:20:27.502Z,85.32
2018-11-23T23:22:56.785Z,85.21
2018-11-23T23:25:25.998Z,85.62
2018-11-23T23:27:55.208Z,84.86
2018-11-23T23:30:24.538Z,85.43
2018-11-23T23:32:53.739Z,85.49
2018-11-23T23:35:22.967Z,84.50
2018-11-23T23:37:52.154Z,85.29
2018-11-23T23:40:21.307Z,85.64
2018-11-23T23:42:50.440Z,85.78
2018-11-23T23:45:19.851Z,85.75
2018-11-23T23:47:49.038Z,85.73
2018-11-23T23:50:22.132Z,86.33
2018-11-23T23:52:51.910Z,86.06
2018-11-23T23:55:21.143Z,86.23
2018-11-23T23:57:50.347Z,86.05
